createdAt,value
2023-06-15T00:01:49.878Z,13.23
2023-06-15T00:04:17.672Z,12.80
2023-06-15T00:06:44.958Z,14.57
2023-06-15T00:09:11.815Z,13.63
2023-06-15T00:11:38.407Z,14.73
2023-06-15T00:14:04.960Z,14.00
2023-06-15T00:16:33.026Z,14.17
2023-06-15T00:19:00.224Z,14.03
2023-06-15T00:21:27.495Z,14.03
2023-06-15T00:23:54.073Z,15.10
2023-06-15T00:26:20.912Z,13.87
2023-06-15T00:28:47.396Z,15.17
2023-06-15T00:31:13.911Z,14.67
2023-06-15T00:33:40.656Z,13.83
2023-06-15T00:36:09.478Z,14.23
2023-06-15T00:38:36.556Z,14.27
2023-06-15T00:41:03.065Z,16.57
2023-06-15T00:43:29.615Z,15.83
2023-06-15T00:45:56.164Z,14.97
2023-06-15T00:48:22.772Z,14.97
2023-06-15T00:50:49.268Z,15.07
2023-06-15T00:53:16.032Z,14.73
2023-06-15T00:55:43.054Z,14.63
2023-06-15T00:58:10.590Z,15.80
2023-06-15T01:00:38.679Z,14.93
2023-06-15T01:03:07.510Z,15.07
2023-06-15T01:05:37.859Z,14.73
2023-06-15T01:08:08.444Z,14.00
2023-06-15T01:10:35.758Z,14.27
2023-06-15T01:13:05.107Z,14.03
2023-06-15T01:15:32.045Z,14.40
2023-06-15T01:17:59.432Z,14.87
2023-06-15T01:20:41.937Z,15.17
2023-06-15T01:23:34.477Z,15.10
2023-06-15T01:26:06.618Z,15.77
2023-06-15T01:28:34.997Z,14.93
2023-06-15T01:31:01.871Z,14.70
2023-06-15T01:33:28.957Z,15.07
2023-06-15T01:35:55.447Z,14.87
2023-06-15T01:38:25.081Z,15.23
2023-06-15T01:40:53.228Z,14.97
2023-06-15T01:43:23.346Z,15.93
2023-06-15T01:45:55.722Z,15.27
2023-06-15T01:48:22.580Z,14.97
2023-06-15T01:50:50.581Z,16.07
2023-06-15T01:53:17.222Z,17.60
2023-06-15T01:55:43.879Z,16.47
2023-06-15T01:58:12.553Z,16.90
2023-06-15T02:00:39.043Z,17.03
2023-06-15T02:03:05.696Z,15.67
2023-06-15T02:05:33.390Z,16.50
2023-06-15T02:08:00.039Z,16.33
2023-06-15T02:10:26.686Z,17.57
2023-06-15T02:12:53.250Z,17.63
2023-06-15T02:15:20.297Z,18.63
2023-06-15T02:17:47.338Z,19.10
2023-06-15T02:20:14.175Z,18.67
2023-06-15T02:22:41.325Z,19.67
2023-06-15T02:25:09.254Z,20.83
2023-06-15T02:27:36.173Z,21.67
2023-06-15T02:30:03.355Z,20.43
2023-06-15T02:32:36.241Z,22.30
2023-06-15T02:35:07.487Z,21.03
2023-06-15T02:37:34.048Z,20.17
2023-06-15T02:40:01.070Z,21.23
2023-06-15T02:42:27.679Z,22.77
2023-06-15T02:44:54.189Z,24.00
2023-06-15T02:47:20.747Z,23.63
2023-06-15T02:49:47.442Z,25.00
2023-06-15T02:52:13.987Z,21.83
2023-06-15T02:54:40.703Z,23.87
2023-06-15T02:57:07.954Z,23.30
2023-06-15T02:59:35.135Z,25.87
2023-06-15T03:02:03.490Z,23.60
2023-06-15T03:04:30.071Z,26.43
2023-06-15T03:06:57.676Z,22.43
2023-06-15T03:09:24.947Z,21.03
2023-06-15T03:11:52.134Z,21.60
2023-06-15T03:14:22.141Z,23.23
2023-06-15T03:16:49.050Z,23.63
2023-06-15T03:19:19.064Z,24.93
2023-06-15T03:21:48.333Z,24.73
2023-06-15T03:24:15.167Z,25.37
2023-06-15T03:26:44.593Z,27.70
2023-06-15T03:29:12.049Z,27.77
2023-06-15T03:31:45.361Z,28.77
2023-06-15T03:34:11.916Z,30.37
2023-06-15T03:36:38.434Z,31.37
2023-06-15T03:39:05.296Z,32.40
2023-06-15T03:41:31.831Z,31.30
2023-06-15T03:43:58.341Z,31.00
2023-06-15T03:46:24.898Z,33.13
2023-06-15T03:48:51.398Z,37.63
2023-06-15T03:51:17.900Z,37.10
2023-06-15T03:53:45.142Z,39.47
2023-06-15T03:56:11.721Z,43.00
2023-06-15T03:58:38.286Z,42.47
2023-06-15T04:01:07.941Z,43.30
2023-06-15T04:03:37.473Z,42.57
2023-06-15T04:06:05.508Z,43.57
2023-06-15T04:08:33.279Z,37.63
2023-06-15T04:11:00.573Z,35.30
2023-06-15T04:13:27.237Z,33.27
2023-06-15T04:15:54.591Z,32.70
2023-06-15T04:18:22.273Z,31.27
2023-06-15T04:20:48.808Z,27.73
2023-06-15T04:23:15.402Z,24.30
2023-06-15T04:25:41.994Z,26.93
2023-06-15T04:28:11.735Z,26.67
2023-06-15T04:30:41.616Z,29.33
2023-06-15T04:33:14.003Z,32.47
2023-06-15T04:35:41.731Z,32.50
2023-06-15T04:38:08.796Z,31.97
2023-06-15T04:40:35.350Z,32.13
2023-06-15T04:43:04.245Z,35.37
2023-06-15T04:45:30.998Z,35.57
2023-06-15T04:47:57.567Z,38.07
2023-06-15T04:50:24.818Z,38.60
2023-06-15T04:52:51.543Z,38.63
2023-06-15T04:55:18.619Z,40.03
2023-06-15T04:57:45.548Z,40.87
2023-06-15T05:00:14.699Z,41.57
2023-06-15T05:02:41.402Z,42.17
2023-06-15T05:05:08.297Z,45.57
2023-06-15T05:07:34.872Z,43.97
2023-06-15T05:10:01.726Z,46.60
2023-06-15T05:12:28.220Z,46.67
2023-06-15T05:14:54.736Z,51.70
2023-06-15T05:17:21.558Z,52.83
2023-06-15T05:19:48.837Z,48.67
2023-06-15T05:22:15.723Z,51.57
2023-06-15T05:24:42.242Z,46.00
2023-06-15T05:27:09.704Z,43.80
2023-06-15T05:29:37.549Z,46.93
2023-06-15T05:32:04.397Z,49.87
2023-06-15T05:34:30.921Z,48.73
2023-06-15T05:36:58.525Z,50.77
2023-06-15T05:39:26.348Z,51.70
2023-06-15T05:41:52.930Z,55.57
2023-06-15T05:44:19.434Z,55.37
2023-06-15T05:46:46.215Z,57.23
2023-06-15T05:49:12.795Z,61.07
2023-06-15T05:51:39.333Z,60.53
2023-06-15T05:54:05.929Z,49.87
2023-06-15T05:56:32.509Z,58.80
2023-06-15T05:58:59.111Z,49.93
2023-06-15T06:01:25.777Z,48.90
2023-06-15T06:03:52.290Z,54.80
2023-06-15T06:06:18.986Z,57.27
2023-06-15T06:08:45.594Z,54.07
2023-06-15T06:11:12.116Z,51.87
2023-06-15T06:13:38.652Z,52.20
2023-06-15T06:16:05.613Z,49.47
2023-06-15T06:18:32.359Z,55.10
2023-06-15T06:20:58.971Z,50.73
2023-06-15T06:23:25.526Z,53.30
2023-06-15T06:25:52.114Z,53.23
2023-06-15T06:28:18.658Z,56.73
2023-06-15T06:30:45.171Z,53.20
2023-06-15T06:33:11.759Z,52.50
2023-06-15T06:35:38.369Z,50.60
2023-06-15T06:38:05.128Z,48.77
2023-06-15T06:40:32.145Z,46.40
2023-06-15T06:42:58.674Z,45.37
2023-06-15T06:45:27.497Z,45.60
2023-06-15T06:47:55.894Z,43.17
2023-06-15T06:50:22.431Z,41.60
2023-06-15T06:52:48.944Z,38.60
2023-06-15T06:55:15.879Z,37.70
2023-06-15T06:57:42.729Z,40.03
2023-06-15T07:00:11.783Z,33.30
2023-06-15T07:02:38.549Z,33.87
2023-06-15T07:05:05.433Z,35.03
2023-06-15T07:07:32.066Z,31.47
2023-06-15T07:09:58.671Z,31.40
2023-06-15T07:12:25.252Z,31.10
2023-06-15T07:14:52.134Z,27.30
2023-06-15T07:17:18.703Z,27.87
2023-06-15T07:19:45.263Z,31.70
2023-06-15T07:22:11.883Z,32.30
2023-06-15T07:24:38.599Z,30.67
2023-06-15T07:27:05.660Z,28.10
2023-06-15T07:29:32.200Z,30.63
2023-06-15T07:31:58.743Z,30.43
2023-06-15T07:34:25.598Z,30.63
2023-06-15T07:36:52.188Z,31.30
2023-06-15T07:39:18.942Z,32.17
2023-06-15T07:41:45.522Z,31.47
2023-06-15T07:44:13.611Z,34.30
2023-06-15T07:46:40.992Z,32.60
2023-06-15T07:49:08.287Z,34.80
2023-06-15T07:51:43.403Z,37.00
2023-06-15T07:54:14.788Z,37.17
2023-06-15T07:56:41.449Z,34.93
2023-06-15T07:59:08.207Z,34.80
2023-06-15T08:01:34.865Z,33.30
2023-06-15T08:04:01.776Z,32.80
2023-06-15T08:06:30.012Z,32.33
2023-06-15T08:08:56.512Z,29.87
2023-06-15T08:11:23.110Z,29.77
2023-06-15T08:13:49.740Z,33.00
2023-06-15T08:16:16.270Z,31.23
2023-06-15T08:18:42.818Z,32.37
2023-06-15T08:21:09.400Z,31.00
2023-06-15T08:23:35.979Z,33.53
2023-06-15T08:26:04.573Z,30.73
2023-06-15T08:28:38.141Z,36.00
2023-06-15T08:31:14.583Z,35.40
2023-06-15T08:33:41.186Z,32.33
2023-06-15T08:36:11.756Z,33.03
2023-06-15T08:38:38.393Z,30.40
2023-06-15T08:41:05.422Z,31.10
2023-06-15T08:43:32.336Z,32.23
2023-06-15T08:45:59.780Z,27.20
2023-06-15T08:48:27.765Z,33.47
2023-06-15T08:50:54.919Z,34.63
2023-06-15T08:53:23.589Z,34.17
2023-06-15T08:55:50.315Z,33.40
2023-06-15T08:58:17.037Z,34.70
2023-06-15T09:00:43.549Z,32.67
2023-06-15T09:03:11.245Z,28.40
2023-06-15T09:05:37.863Z,29.13
2023-06-15T09:08:05.080Z,29.77
2023-06-15T09:10:37.157Z,29.53
2023-06-15T09:13:04.117Z,29.90
2023-06-15T09:15:32.011Z,32.40
2023-06-15T09:18:03.621Z,28.53
2023-06-15T09:20:32.291Z,33.33
2023-06-15T09:23:03.367Z,36.03
2023-06-15T09:25:36.680Z,39.13
2023-06-15T09:28:08.432Z,38.60
2023-06-15T09:30:41.595Z,38.63
2023-06-15T09:33:16.281Z,39.67
2023-06-15T09:36:03.670Z,35.07
2023-06-15T09:38:33.936Z,37.63
2023-06-15T09:41:04.830Z,36.40
2023-06-15T09:43:35.589Z,36.17
2023-06-15T09:46:12.910Z,34.60
2023-06-15T09:48:40.334Z,34.77
2023-06-15T09:51:07.614Z,30.77
2023-06-15T09:53:34.805Z,28.67
2023-06-15T09:56:01.831Z,26.37
2023-06-15T09:58:28.647Z,30.07
2023-06-15T10:01:04.598Z,32.17
2023-06-15T10:03:34.242Z,34.27
2023-06-15T10:06:05.674Z,36.83
2023-06-15T10:08:34.935Z,34.83
2023-06-15T10:11:01.884Z,34.20
2023-06-15T10:13:52.548Z,37.40
2023-06-15T10:16:21.666Z,36.07
2023-06-15T10:18:51.833Z,33.33
2023-06-15T10:21:21.042Z,34.20
2023-06-15T10:23:51.144Z,32.90
2023-06-15T10:26:25.651Z,32.47
2023-06-15T10:29:01.483Z,33.30
2023-06-15T10:32:06.699Z,31.37
2023-06-15T10:34:46.163Z,38.57
2023-06-15T10:37:50.464Z,36.47
2023-06-15T10:40:31.401Z,33.30
2023-06-15T10:43:06.657Z,31.70
2023-06-15T10:45:59.557Z,34.07
2023-06-15T10:48:31.022Z,29.77
2023-06-15T10:51:08.834Z,31.90
2023-06-15T10:53:41.833Z,32.63
2023-06-15T10:56:22.046Z,28.00
2023-06-15T10:59:03.423Z,33.67
2023-06-15T11:01:33.315Z,35.00
2023-06-15T11:04:01.640Z,37.27
2023-06-15T11:06:33.952Z,31.07
2023-06-15T11:09:11.435Z,33.00
2023-06-15T11:11:39.297Z,32.03
2023-06-15T11:14:22.366Z,32.93
2023-06-15T11:17:05.261Z,36.67
2023-06-15T11:19:32.711Z,30.17
2023-06-15T11:22:03.325Z,32.57
2023-06-15T11:24:38.428Z,29.50
2023-06-15T11:27:13.774Z,30.00
2023-06-15T11:29:44.575Z,29.77
2023-06-15T11:32:11.603Z,31.27
2023-06-15T11:34:39.750Z,31.50
2023-06-15T11:37:08.033Z,36.47
2023-06-15T11:39:34.701Z,32.63
2023-06-15T11:42:02.130Z,30.50
2023-06-15T11:44:28.849Z,29.90
2023-06-15T11:47:00.625Z,31.17
2023-06-15T11:49:35.143Z,28.53
2023-06-15T11:52:01.754Z,36.23
2023-06-15T11:54:45.084Z,31.80
2023-06-15T11:57:17.036Z,31.50
2023-06-15T11:59:43.598Z,35.87
2023-06-15T12:02:12.061Z,31.40
2023-06-15T12:04:38.970Z,54.20
2023-06-15T12:07:06.428Z,60.27
2023-06-15T12:09:33.329Z,35.63
2023-06-15T12:11:59.875Z,36.00
2023-06-15T12:14:26.381Z,34.10
2023-06-15T12:16:53.960Z,41.47
2023-06-15T12:19:21.813Z,37.43
2023-06-15T12:21:48.994Z,32.27
2023-06-15T12:24:21.264Z,37.57
2023-06-15T12:26:58.713Z,37.53
2023-06-15T12:29:26.427Z,36.67
2023-06-15T12:31:57.054Z,45.53
2023-06-15T12:34:30.257Z,39.73
2023-06-15T12:36:57.011Z,37.30
2023-06-15T12:39:31.281Z,55.43
2023-06-15T12:42:02.543Z,29.90
2023-06-15T12:44:31.142Z,42.57
2023-06-15T12:46:57.718Z,32.00
2023-06-15T12:49:24.181Z,52.73
2023-06-15T12:51:52.094Z,31.50
2023-06-15T12:54:19.788Z,56.43
2023-06-15T12:56:46.563Z,45.67
2023-06-15T12:59:13.211Z,38.17
2023-06-15T13:01:39.831Z,40.37
2023-06-15T13:04:07.156Z,73.33
2023-06-15T13:06:34.274Z,48.17
2023-06-15T13:09:00.805Z,38.67
2023-06-15T13:11:29.208Z,57.73
2023-06-15T13:13:55.785Z,44.30
2023-06-15T13:16:22.430Z,39.60
2023-06-15T13:18:57.132Z,38.90
2023-06-15T13:21:23.808Z,37.33
2023-06-15T13:23:53.436Z,41.07
2023-06-15T13:26:20.304Z,38.43
2023-06-15T13:28:46.823Z,36.63
2023-06-15T13:31:13.778Z,54.13
2023-06-15T13:33:41.340Z,53.33
2023-06-15T13:36:07.985Z,53.80
2023-06-15T13:38:34.505Z,39.43
2023-06-15T13:41:01.240Z,38.23
2023-06-15T13:43:27.859Z,37.93
2023-06-15T13:45:54.487Z,35.67
2023-06-15T13:48:21.108Z,39.77
2023-06-15T13:50:53.109Z,33.73
2023-06-15T13:53:19.798Z,35.67
2023-06-15T13:55:46.832Z,34.13
2023-06-15T13:58:13.527Z,35.90
2023-06-15T14:00:40.337Z,34.13
2023-06-15T14:03:07.800Z,30.90
2023-06-15T14:05:37.046Z,36.13
2023-06-15T14:08:03.936Z,32.93
2023-06-15T14:10:33.681Z,37.03
2023-06-15T14:13:03.209Z,37.60
2023-06-15T14:15:32.238Z,32.30
2023-06-15T14:17:59.518Z,37.33
2023-06-15T14:20:26.384Z,33.13
2023-06-15T14:22:56.307Z,38.67
2023-06-15T14:25:25.129Z,40.97
2023-06-15T14:27:51.787Z,33.33
2023-06-15T14:30:18.687Z,40.10
2023-06-15T14:32:45.922Z,38.27
2023-06-15T14:35:12.780Z,31.93
2023-06-15T14:37:39.427Z,38.83
2023-06-15T14:40:06.400Z,37.93
2023-06-15T14:42:47.992Z,34.37
2023-06-15T14:45:15.579Z,34.93
2023-06-15T14:47:47.502Z,65.27
2023-06-15T14:50:14.625Z,43.97
2023-06-15T14:52:41.802Z,35.53
2023-06-15T14:55:08.748Z,40.43
2023-06-15T14:57:35.570Z,57.83
2023-06-15T15:00:02.294Z,103.73
2023-06-15T15:02:41.664Z,43.50
2023-06-15T15:05:11.872Z,38.20
2023-06-15T15:07:43.552Z,42.93
2023-06-15T15:10:16.565Z,36.37
2023-06-15T15:12:49.197Z,34.33
2023-06-15T15:15:18.978Z,39.67
2023-06-15T15:17:45.545Z,42.10
2023-06-15T15:20:12.230Z,41.23
2023-06-15T15:22:40.621Z,28.80
2023-06-15T15:25:07.464Z,34.60
2023-06-15T15:27:33.986Z,41.40
2023-06-15T15:30:00.576Z,29.97
2023-06-15T15:32:27.136Z,30.97
2023-06-15T15:34:53.720Z,33.63
2023-06-15T15:37:20.379Z,45.10
2023-06-15T15:39:46.922Z,31.13
2023-06-15T15:42:14.476Z,38.67
2023-06-15T15:44:41.178Z,34.90
2023-06-15T15:47:07.844Z,57.20
2023-06-15T15:49:34.534Z,35.70
2023-06-15T15:52:01.034Z,39.10
2023-06-15T15:54:27.571Z,36.87
2023-06-15T15:56:54.213Z,34.43
2023-06-15T15:59:22.856Z,35.37
2023-06-15T16:01:50.144Z,35.03
2023-06-15T16:04:17.248Z,36.43
2023-06-15T16:06:45.879Z,38.67
2023-06-15T16:09:12.590Z,33.97
2023-06-15T16:11:39.122Z,33.83
2023-06-15T16:14:05.957Z,39.63
2023-06-15T16:16:32.738Z,40.40
2023-06-15T16:18:59.293Z,39.87
2023-06-15T16:21:26.083Z,39.97
2023-06-15T16:23:52.757Z,34.30
2023-06-15T16:26:19.542Z,58.73
2023-06-15T16:28:47.932Z,37.47
2023-06-15T16:31:14.584Z,38.83
2023-06-15T16:33:41.119Z,35.57
2023-06-15T16:36:07.799Z,35.87
2023-06-15T16:38:34.302Z,38.60
2023-06-15T16:41:00.843Z,37.30
2023-06-15T16:43:27.321Z,34.33
2023-06-15T16:45:53.917Z,35.67
2023-06-15T16:48:20.525Z,36.23
2023-06-15T16:50:47.106Z,38.00
2023-06-15T16:53:14.106Z,38.63
2023-06-15T16:55:40.721Z,38.53
2023-06-15T16:58:07.233Z,37.13
2023-06-15T17:00:33.982Z,35.53
2023-06-15T17:03:00.703Z,36.73
2023-06-15T17:05:27.353Z,35.27
2023-06-15T17:07:53.832Z,35.43
2023-06-15T17:10:20.653Z,38.47
2023-06-15T17:12:47.429Z,34.70
2023-06-15T17:15:13.982Z,33.13
2023-06-15T17:17:41.745Z,34.50
2023-06-15T17:20:09.490Z,36.00
2023-06-15T17:22:38.458Z,36.10
2023-06-15T17:25:05.525Z,32.50
2023-06-15T17:27:32.021Z,31.37
2023-06-15T17:29:58.566Z,33.87
2023-06-15T17:32:26.085Z,33.27
2023-06-15T17:34:52.648Z,30.50
2023-06-15T17:37:19.192Z,32.43
2023-06-15T17:39:45.744Z,31.67
2023-06-15T17:42:13.094Z,30.60
2023-06-15T17:44:39.730Z,32.87
2023-06-15T17:47:06.345Z,31.47
2023-06-15T17:49:32.864Z,30.27
2023-06-15T17:51:59.658Z,33.17
2023-06-15T17:54:26.168Z,31.00
2023-06-15T17:56:52.676Z,31.83
2023-06-15T17:59:19.268Z,31.00
2023-06-15T18:01:45.878Z,32.80
2023-06-15T18:04:13.245Z,32.93
2023-06-15T18:06:40.443Z,30.83
2023-06-15T18:09:07.810Z,27.10
2023-06-15T18:11:34.811Z,30.23
2023-06-15T18:14:01.319Z,31.27
2023-06-15T18:16:29.367Z,32.80
2023-06-15T18:18:56.037Z,31.50
2023-06-15T18:21:23.102Z,30.80
2023-06-15T18:23:49.652Z,31.73
2023-06-15T18:26:16.710Z,30.97
2023-06-15T18:28:43.192Z,30.43
2023-06-15T18:31:09.687Z,33.27
2023-06-15T18:33:36.220Z,29.60
2023-06-15T18:36:03.055Z,29.70
2023-06-15T18:38:29.887Z,32.17
2023-06-15T18:40:56.633Z,32.30
2023-06-15T18:43:23.157Z,27.13
2023-06-15T18:45:49.776Z,31.73
2023-06-15T18:48:16.678Z,28.80
2023-06-15T18:50:43.333Z,29.77
2023-06-15T18:53:09.818Z,31.33
2023-06-15T18:55:36.637Z,28.63
2023-06-15T18:58:04.772Z,25.70
2023-06-15T19:00:31.398Z,30.87
2023-06-15T19:02:58.027Z,29.80
2023-06-15T19:05:24.608Z,28.43
2023-06-15T19:07:51.120Z,30.07
2023-06-15T19:10:17.722Z,28.40
2023-06-15T19:12:44.307Z,24.53
2023-06-15T19:15:12.842Z,27.03
2023-06-15T19:17:39.899Z,25.80
2023-06-15T19:20:07.474Z,25.90
2023-06-15T19:22:33.993Z,25.30
2023-06-15T19:25:00.516Z,27.13
2023-06-15T19:27:27.105Z,24.77
2023-06-15T19:29:54.068Z,24.90
2023-06-15T19:32:20.718Z,25.60
2023-06-15T19:34:47.198Z,24.27
2023-06-15T19:37:13.706Z,23.60
2023-06-15T19:39:40.209Z,24.17
2023-06-15T19:42:06.787Z,23.77
2023-06-15T19:44:33.338Z,25.40
2023-06-15T19:46:59.923Z,22.03
2023-06-15T19:49:29.872Z,22.17
2023-06-15T19:51:57.906Z,21.67
2023-06-15T19:54:24.701Z,22.50
2023-06-15T19:56:51.332Z,25.90
2023-06-15T19:59:20.149Z,25.87
2023-06-15T20:01:47.042Z,23.10
2023-06-15T20:04:13.728Z,22.37
2023-06-15T20:06:40.319Z,27.93
2023-06-15T20:09:06.873Z,28.33
2023-06-15T20:11:33.458Z,25.43
2023-06-15T20:14:00.528Z,25.40
2023-06-15T20:16:27.150Z,25.03
2023-06-15T20:18:54.442Z,24.77
2023-06-15T20:21:28.992Z,24.03
2023-06-15T20:23:56.118Z,23.47
2023-06-15T20:26:24.212Z,25.07
2023-06-15T20:28:50.864Z,23.73
2023-06-15T20:31:17.493Z,24.20
2023-06-15T20:33:45.511Z,23.80
2023-06-15T20:36:12.871Z,21.67
2023-06-15T20:38:39.904Z,21.07
2023-06-15T20:41:06.446Z,24.23
2023-06-15T20:43:33.161Z,22.53
2023-06-15T20:46:01.244Z,21.20
2023-06-15T20:48:32.991Z,21.43
2023-06-15T20:51:01.552Z,21.13
2023-06-15T20:53:28.342Z,22.50
2023-06-15T20:55:54.873Z,20.83
2023-06-15T21:00:48.620Z,20.67
2023-06-15T21:03:15.366Z,20.57
2023-06-15T21:05:42.027Z,21.00
2023-06-15T21:08:08.637Z,21.37
2023-06-15T21:10:35.200Z,23.20
2023-06-15T21:13:02.012Z,21.80
2023-06-15T21:15:28.725Z,19.80
2023-06-15T21:17:55.791Z,21.70
2023-06-15T21:20:22.769Z,21.00
2023-06-15T21:22:49.408Z,19.80
2023-06-15T21:25:15.944Z,21.57
2023-06-15T21:27:42.461Z,21.23
2023-06-15T21:30:09.316Z,19.83
2023-06-15T21:32:35.974Z,19.77
2023-06-15T21:35:04.416Z,21.43
2023-06-15T21:37:31.096Z,21.30
2023-06-15T21:39:57.644Z,21.27
2023-06-15T21:42:26.382Z,20.80
2023-06-15T21:44:53.077Z,22.43
2023-06-15T21:47:19.889Z,22.60
2023-06-15T21:49:46.549Z,22.80
2023-06-15T21:52:16.204Z,21.60
2023-06-15T21:54:43.666Z,22.50
2023-06-15T21:57:12.807Z,21.83
2023-06-15T21:59:39.523Z,22.93
2023-06-15T22:02:06.368Z,21.47
2023-06-15T22:04:33.090Z,22.80
2023-06-15T22:06:59.613Z,21.73
2023-06-15T22:09:26.197Z,22.77
2023-06-15T22:11:52.845Z,21.93
2023-06-15T22:14:19.718Z,22.73
2023-06-15T22:16:47.762Z,23.47
2023-06-15T22:19:14.701Z,22.47
2023-06-15T22:21:41.380Z,23.77
2023-06-15T22:24:09.558Z,21.40
2023-06-15T22:26:48.200Z,23.17
2023-06-15T22:29:18.889Z,29.67
2023-06-15T22:31:50.190Z,22.83
2023-06-15T22:34:17.271Z,22.73
2023-06-15T22:36:44.526Z,21.63
2023-06-15T22:39:11.649Z,23.47
2023-06-15T22:41:39.442Z,21.13
2023-06-15T22:44:06.483Z,25.37
2023-06-15T22:46:33.073Z,22.23
2023-06-15T22:48:59.908Z,24.67
2023-06-15T22:51:31.303Z,27.17
2023-06-15T22:53:59.078Z,25.40
2023-06-15T22:56:27.042Z,28.03
2023-06-15T22:58:54.801Z,31.93
2023-06-15T23:01:21.584Z,28.77
2023-06-15T23:03:48.262Z,33.80
2023-06-15T23:06:20.551Z,32.77
2023-06-15T23:08:49.016Z,29.40
2023-06-15T23:11:18.407Z,29.80
2023-06-15T23:13:51.890Z,33.57
2023-06-15T23:16:18.881Z,31.43
2023-06-15T23:18:46.194Z,33.30
2023-06-15T23:21:14.417Z,29.60
2023-06-15T23:23:41.531Z,32.93
2023-06-15T23:26:09.929Z,32.77
2023-06-15T23:28:40.649Z,38.47
2023-06-15T23:31:07.574Z,34.00
2023-06-15T23:33:36.190Z,36.50
2023-06-15T23:36:03.247Z,37.87
2023-06-15T23:38:29.806Z,37.90
2023-06-15T23:40:56.493Z,33.97
2023-06-15T23:43:23.064Z,34.47
2023-06-15T23:45:50.881Z,39.77
2023-06-15T23:48:17.476Z,36.00
2023-06-15T23:50:43.984Z,36.07
2023-06-15T23:53:12.858Z,38.10
2023-06-15T23:55:43.395Z,35.83
2023-06-15T23:58:10.922Z,32.80
